Flight Track Log - Related Links

Times and Time Zones

All times are in EDT time to prevent confusion due to time zone crossing. See the SWA2975 flight status page for this flight to view local times or setup timezone preferences in your user account.

Time Position Orientation Groundspeed Altitude Reporting Facility
EDT Latitude Longitude Course Direction KTS MPH feet Rate Location/Type
Thu 06:32:35 PM 40.8090 -111.9770 355° North 173 199 4,700  Level FlightAware ADS-B
Thu 06:33:01 PM 40.8310 -111.9800 354° North 194 223 5,500 1,448 Climbing FlightAware ADS-B
Thu 06:33:33 PM 40.8620 -111.9850 353° North 231 266 6,100 1,091 Climbing FlightAware ADS-B
Thu 06:33:45 PM 40.8750 -111.9870 353° North 245 282 6,300 1,459 Climbing FlightAware ADS-B
Thu 06:34:10 PM 40.9030 -111.9900 355° North 260 299 7,000 2,000 Climbing FlightAware ADS-B
Thu 06:34:42 PM 40.9440 -111.9940 356° North 272 313 8,200 2,291 Climbing FlightAware ADS-B
Thu 06:35:05 PM 40.9730 -111.9980 354° North 274 315 9,100 1,959 Climbing FlightAware ADS-B
Thu 06:35:31 PM 41.0070 -112.0040 352° North 294 338 9,800 2,172 Climbing FlightAware ADS-B
Thu 06:36:03 PM 41.0450 -111.9890 17° North 295 339 11,200 2,455 Climbing FlightAware ADS-B
Thu 06:36:15 PM 41.0540 -111.9710 56° Northeast 297 342 11,600 1,909 Climbing FlightAware ADS-B
Thu 06:37:09 PM 41.0520 -111.8690 91° East 326 375 13,300 1,579 Climbing FlightAware ADS-B
Thu 06:37:50 PM 41.0580 -111.7840 85° East 363 418 14,100 1,435 Climbing FlightAware ADS-B
Thu 06:38:41 PM 41.0810 -111.6690 75° East 387 445 15,500 1,780 Climbing FlightAware ADS-B
Thu 06:39:21 PM 41.1000 -111.5760 75° East 397 457 16,800 1,219 Climbing FlightAware ADS-B
Thu 06:41:53 PM 41.1680 -111.2430 75° East 407 468 19,400 571 Climbing FlightAware ADS-B
Thu 06:43:54 PM 41.2180 -110.9940 75° East 407 468 19,400 2,232 Level FlightAware ADS-B
Thu 06:44:37 PM 41.2558 -110.7933 75° East 454 522 25,500 4,358 Climbing Salt Lake Center
Thu 06:45:40 PM 41.2922 -110.6044 76° East 471 542 27,100 1,355 Climbing Salt Lake Center
Thu 06:46:41 PM 41.3242 -110.4400 75° East 479 551 28,300 1,171 Climbing Salt Lake Center
Thu 06:47:43 PM 41.3567 -110.2725 75° East 487 560 29,500 1,258 Climbing Salt Lake Center
Thu 06:48:45 PM 41.3947 -110.0761 75° East 492 566 30,900 1,403 Climbing Salt Lake Center
Thu 06:49:47 PM 41.4258 -109.9072 76° East 491 565 32,400 1,355 Climbing Salt Lake Center
Thu 06:50:49 PM 41.4628 -109.7156 76° East 480 552 33,700 1,113 Climbing Salt Lake Center
Thu 06:51:51 PM 41.4936 -109.5483 76° East 484 557 34,700 1,016 Climbing Salt Lake Center
Thu 06:52:53 PM 41.5303 -109.3539 76° East 481 554 35,800 1,016 Climbing Salt Lake Center
Thu 06:53:55 PM 41.5617 -109.1858 76° East 480 552 36,800 581 Climbing Salt Lake Center
Thu 06:54:57 PM 41.5906 -109.0167 77° East 477 549 37,000 97 Climbing Salt Lake Center
Thu 06:55:59 PM 41.6064 -108.8189 84° East 476 548 37,000  Level Salt Lake Center
Thu 06:57:01 PM 41.6194 -108.6508 84° East 475 547 37,000  Level Salt Lake Center
Thu 06:57:32 PM 41.6228 -108.5928 86° East 477 549 37,000  Level Denver Center
Thu 06:58:03 PM 41.6342 -108.4550 84° East 475 547 37,000  Level Salt Lake Center
Thu 06:58:35 PM 41.6392 -108.3675 86° East 478 550 37,000  Level Denver Center
Thu 06:59:36 PM 41.6528 -108.1978 84° East 480 552 37,000  Level Denver Center
Thu 07:00:06 PM 41.6614 -108.0867 84° East 480 552 37,000  Level Salt Lake Center
Thu 07:01:08 PM 41.6728 -107.9175 85° East 480 552 37,000  Level Salt Lake Center
Thu 07:01:40 PM 41.6781 -107.8308 85° East 478 550 37,000  Level Denver Center
Thu 07:07:05 PM 41.7410 -106.8540 85° East 476 548 37,000  Level FlightAware ADS-B
Thu 07:07:46 PM 41.7480 -106.7520 85° East 476 548 37,000  Level FlightAware ADS-B
Thu 07:08:39 PM 41.7570 -106.5880 86° East 476 548 37,000  Level FlightAware ADS-B
Thu 07:09:28 PM 41.7650 -106.4300 86° East 474 545 37,000  Level FlightAware ADS-B
Thu 07:10:07 PM 41.7700 -106.3160 87° East 473 544 37,000  Level FlightAware ADS-B
Thu 07:10:52 PM 41.7760 -106.1840 86° East 472 543 37,000  Level FlightAware ADS-B
Thu 07:11:48 PM 41.7810 -106.0670 87° East 472 543 37,000  Level FlightAware ADS-B
Thu 07:12:30 PM 41.7890 -105.8980 86° East 473 544 37,000  Level FlightAware ADS-B
Thu 07:13:08 PM 41.7940 -105.7870 87° East 474 545 37,000  Level FlightAware ADS-B
Thu 07:13:51 PM 41.7990 -105.6620 87° East 476 548 37,000  Level FlightAware ADS-B
Thu 07:14:32 PM 41.8030 -105.5470 87° East 477 549 37,000  Level FlightAware ADS-B
Thu 07:15:31 PM 41.8100 -105.3680 87° East 475 547 37,000  Level FlightAware ADS-B
Thu 07:16:08 PM 41.8150 -105.2570 87° East 477 549 37,000  Level FlightAware ADS-B
Thu 07:16:51 PM 41.8190 -105.1500 87° East 475 547 37,000  Level FlightAware ADS-B
Thu 07:17:30 PM 41.8230 -105.0230 88° East 472 543 37,000  Level FlightAware ADS-B
Thu 07:18:20 PM 41.8290 -104.8720 87° East 476 548 37,000  Level FlightAware ADS-B
Thu 07:18:59 PM 41.8330 -104.7690 87° East 477 549 37,000  Level FlightAware ADS-B
Thu 07:19:42 PM 41.8370 -104.6300 88° East 479 551 37,000  Level FlightAware ADS-B
Thu 07:20:25 PM 41.8400 -104.5050 88° East 479 551 37,000  Level FlightAware ADS-B
Thu 07:21:06 PM 41.8440 -104.3790 88° East 480 552 37,000  Level FlightAware ADS-B
Thu 07:21:42 PM 41.8470 -104.2770 88° East 480 552 37,000  Level FlightAware ADS-B
Thu 07:22:31 PM 41.8520 -104.1280 87° East 479 551 37,000  Level FlightAware ADS-B
Thu 07:23:09 PM 41.8550 -104.0150 88° East 480 552 37,000  Level FlightAware ADS-B
Thu 07:23:53 PM 41.8580 -103.8890 88° East 480 552 37,000  Level FlightAware ADS-B
Thu 07:24:39 PM 41.8620 -103.7490 88° East 480 552 37,000  Level FlightAware ADS-B
Thu 07:25:17 PM 41.8640 -103.6350 89° East 481 554 37,000  Level FlightAware ADS-B
Thu 07:26:01 PM 41.8670 -103.5110 88° East 481 554 37,000  Level FlightAware ADS-B
Thu 07:26:57 PM 41.8710 -103.3390 88° East 479 551 37,000  Level FlightAware ADS-B
Thu 07:27:38 PM 41.8730 -103.2180 89° East 478 550 37,000  Level FlightAware ADS-B
Thu 07:28:23 PM 41.8760 -103.0910 88° East 478 550 37,000  Level FlightAware ADS-B
Thu 07:29:00 PM 41.8780 -102.9970 88° East 478 550 37,000  Level FlightAware ADS-B
Thu 07:29:48 PM 41.8810 -102.8760 88° East 478 550 37,000  Level FlightAware ADS-B
Thu 07:30:24 PM 41.8840 -102.7850 87° East 478 550 37,000  Level FlightAware ADS-B
Thu 07:31:24 PM 41.8880 -102.6340 88° East 478 550 37,000  Level FlightAware ADS-B
Thu 07:32:00 PM 41.8900 -102.5430 88° East 478 550 37,000  Level FlightAware ADS-B
Thu 07:32:48 PM 41.8930 -102.4220 88° East 478 550 37,000  Level FlightAware ADS-B
Thu 07:33:40 PM 41.8900 -102.1620 91° East 477 549 37,000  Level FlightAware ADS-B
Thu 07:34:17 PM 41.8910 -102.0690 89° East 477 549 37,000  Level FlightAware ADS-B
Thu 07:35:05 PM 41.8920 -101.9480 89° East 477 549 37,000  Level FlightAware ADS-B
Thu 07:35:42 PM 41.8940 -101.8550 88° East 477 549 37,000  Level FlightAware ADS-B
Thu 07:36:30 PM 41.8950 -101.7340 89° East 477 549 37,000  Level FlightAware ADS-B
Thu 07:37:07 PM 41.8960 -101.6410 89° East 477 549 37,000  Level FlightAware ADS-B
Thu 07:37:58 PM 41.8980 -101.5120 89° East 477 549 37,000  Level FlightAware ADS-B
Thu 07:38:33 PM 41.8990 -101.4240 89° East 477 549 37,000  Level FlightAware ADS-B
Thu 07:39:21 PM 41.9010 -101.3030 89° East 477 549 37,000  Level FlightAware ADS-B
Thu 07:39:57 PM 41.9020 -101.2120 89° East 477 549 37,000  Level FlightAware ADS-B
Thu 07:40:45 PM 41.9030 -101.0910 89° East 477 549 37,000  Level FlightAware ADS-B
Thu 07:41:21 PM 41.9050 -101.0010 88° East 477 549 37,000  Level FlightAware ADS-B
Thu 07:42:09 PM 41.9060 -100.8800 89° East 477 549 37,000  Level FlightAware ADS-B
Thu 07:42:46 PM 41.9070 -100.7870 89° East 477 549 37,000  Level FlightAware ADS-B
Thu 07:43:50 PM 41.8939 -100.3633 89° East 480 552 37,000  Level Minneapolis Center
Thu 07:44:53 PM 41.8944 -100.1822 90° East 483 556 37,000  Level Minneapolis Center
Thu 07:46:02 PM 41.8919 -99.9547 91° East 481 554 37,000  Level Denver Center
Thu 07:47:04 PM 41.8900 -99.7819 91° East 483 556 37,000  Level Denver Center
Thu 07:48:06 PM 41.8886 -99.6053 91° East 483 556 37,000  Level Denver Center
Thu 07:49:08 PM 41.8861 -99.3892 91° East 482 555 37,000  Level Denver Center
Thu 07:50:23 PM 41.8828 -99.1711 91° East 483 556 37,000  Level Denver Center
Thu 07:55:49 PM 41.8640 -98.1950 91° East 483 556 37,000  Level FlightAware ADS-B
Thu 07:56:33 PM 41.8600 -98.0560 92° East 483 556 37,000  Level FlightAware ADS-B
Thu 07:57:15 PM 41.8570 -97.9340 92° East 483 556 37,000  Level FlightAware ADS-B
Thu 07:57:59 PM 41.8540 -97.8000 92° East 483 556 37,000  Level FlightAware ADS-B
Thu 07:58:35 PM 41.8510 -97.7070 92° East 484 557 37,000  Level FlightAware ADS-B
Thu 07:59:33 PM 41.8460 -97.5200 92° East 489 563 37,000  Level FlightAware ADS-B
Thu 08:00:31 PM 41.8410 -97.3440 92° East 493 567 37,000  Level FlightAware ADS-B
Thu 08:01:11 PM 41.8370 -97.2190 92° East 493 567 37,000  Level FlightAware ADS-B
Thu 08:01:56 PM 41.8320 -97.0850 93° East 491 565 37,000  Level FlightAware ADS-B
Thu 08:02:31 PM 41.8290 -96.9770 92° East 487 560 37,000  Level FlightAware ADS-B
Thu 08:03:21 PM 41.8230 -96.8260 93° East 486 559 37,000  Level FlightAware ADS-B
Thu 08:04:01 PM 41.8190 -96.7080 93° East 487 560 37,000  Level FlightAware ADS-B
Thu 08:04:41 PM 41.8150 -96.5870 92° East 487 560 37,000  Level FlightAware ADS-B
Thu 08:05:23 PM 41.8100 -96.4600 93° East 485 558 37,000  Level FlightAware ADS-B
Thu 08:06:01 PM 41.8050 -96.3480 93° East 480 552 37,000  Level FlightAware ADS-B
Thu 08:06:45 PM 41.8000 -96.2190 93° East 473 544 37,000  Level FlightAware ADS-B
Thu 08:07:31 PM 41.7950 -96.0830 93° East 471 542 37,000  Level FlightAware ADS-B
Thu 08:08:13 PM 41.7890 -95.9600 94° East 472 543 37,000  Level FlightAware ADS-B
Thu 08:08:57 PM 41.7840 -95.8330 93° East 473 544 37,000  Level FlightAware ADS-B
Thu 08:09:37 PM 41.7790 -95.7150 93° East 475 547 37,000  Level FlightAware ADS-B
Thu 08:10:15 PM 41.7730 -95.6060 94° East 476 548 37,000  Level FlightAware ADS-B
Thu 08:11:47 PM 41.7640 -95.3760 93° East 476 548 37,000  Level FlightAware ADS-B
Thu 08:12:28 PM 41.7600 -95.2730 93° East 476 548 37,000  Level FlightAware ADS-B
Thu 08:13:04 PM 41.7570 -95.1830 93° East 476 548 37,000  Level FlightAware ADS-B
Thu 08:13:53 PM 41.7520 -95.0600 93° East 476 548 37,000  Level FlightAware ADS-B
Thu 08:14:42 PM 41.7350 -94.8260 95° East 484 557 37,000  Level FlightAware ADS-B
Thu 08:15:27 PM 41.7270 -94.6790 94° East 483 556 37,000  Level FlightAware ADS-B
Thu 08:16:13 PM 41.7190 -94.5420 94° East 485 558 37,000  Level FlightAware ADS-B
Thu 08:16:56 PM 41.7130 -94.4300 94° East 485 558 37,000  Level FlightAware ADS-B
Thu 08:17:30 PM 41.7090 -94.3430 93° East 485 558 37,000  Level FlightAware ADS-B
Thu 08:18:33 PM 41.6950 -94.1290 95° East 487 560 37,000  Level FlightAware ADS-B
Thu 08:19:11 PM 41.6880 -94.0100 94° East 488 562 37,000  Level FlightAware ADS-B
Thu 08:19:51 PM 41.6810 -93.8880 94° East 488 562 37,000  Level FlightAware ADS-B
Thu 08:20:37 PM 41.6730 -93.7510 94° East 489 563 37,000  Level FlightAware ADS-B
Thu 08:21:13 PM 41.6660 -93.6430 95° East 489 563 37,000  Level FlightAware ADS-B
Thu 08:21:59 PM 41.6570 -93.5040 95° East 490 564 37,000  Level FlightAware ADS-B
Thu 08:22:43 PM 41.6480 -93.3710 95° East 496 571 37,000  Level FlightAware ADS-B
Thu 08:23:21 PM 41.6380 -93.2530 96° East 508 585 37,000  Level FlightAware ADS-B
Thu 08:24:07 PM 41.6220 -93.1110 99° East 510 587 37,000  Level FlightAware ADS-B
Thu 08:24:47 PM 41.6070 -92.9870 99° East 513 590 37,000  Level FlightAware ADS-B
Thu 08:25:31 PM 41.5910 -92.8490 99° East 513 590 37,000 -419 Level FlightAware ADS-B
Thu 08:26:13 PM 41.5760 -92.7190 99° East 513 590 36,400 -900 Descending FlightAware ADS-B
Thu 08:26:51 PM 41.5610 -92.5970 99° East 514 592 35,800 -1,000 Descending FlightAware ADS-B
Thu 08:27:37 PM 41.5440 -92.4580 99° East 516 594 35,000 -977 Descending FlightAware ADS-B
Thu 08:28:17 PM 41.5290 -92.3280 99° East 509 586 34,400 -1,000 Descending FlightAware ADS-B
Thu 08:29:01 PM 41.5130 -92.1980 99° East 505 581 33,600 -1,024 Descending FlightAware ADS-B
Thu 08:29:39 PM 41.4980 -92.0810 100° East 498 573 33,000 -987 Descending FlightAware ADS-B
Thu 08:30:20 PM 41.4830 -91.9560 99° East 492 566 32,300 -1,034 Descending FlightAware ADS-B
Thu 08:31:06 PM 41.4650 -91.8190 100° East 489 563 31,500 -897 Descending FlightAware ADS-B
Thu 08:31:47 PM 41.4500 -91.7010 100° East 483 556 31,000 -357 Descending FlightAware ADS-B
Thu 08:32:30 PM 41.4340 -91.5750 100° East 482 555 31,000  Level FlightAware ADS-B
Thu 08:33:12 PM 41.4180 -91.4500 100° East 482 555 31,000 -419 Level FlightAware ADS-B
Thu 08:33:56 PM 41.4010 -91.3220 100° East 492 566 30,400 -857 Descending FlightAware ADS-B
Thu 08:34:36 PM 41.3850 -91.2010 100° East 498 573 29,800 -911 Descending FlightAware ADS-B
Thu 08:35:15 PM 41.3690 -91.0820 100° East 500 575 29,200 -951 Descending FlightAware ADS-B
Thu 08:35:58 PM 41.3530 -90.9600 100° East 500 575 28,500 -2,000 Descending FlightAware ADS-B
Thu 08:36:42 PM 41.3340 -90.8220 100° East 501 577 26,300 -2,965 Descending FlightAware ADS-B
Thu 08:37:23 PM 41.3170 -90.6990 100° East 505 581 24,300 -1,786 Descending FlightAware ADS-B
Thu 08:38:06 PM 41.2990 -90.5630 100° East 504 580 23,800 -818 Descending FlightAware ADS-B
Thu 08:38:51 PM 41.2800 -90.4300 101° East 491 565 23,100 -1,000 Descending FlightAware ADS-B
Thu 08:39:30 PM 41.2640 -90.3140 100° East 488 562 22,400 -975 Descending FlightAware ADS-B
Thu 08:40:11 PM 41.2470 -90.1930 101° East 484 557 21,800 -911 Descending FlightAware ADS-B
Thu 08:40:49 PM 41.2310 -90.0830 101° East 480 552 21,200 -1,091 Descending FlightAware ADS-B
Thu 08:41:39 PM 41.2110 -89.9420 101° East 470 541 20,200 -1,714 Descending FlightAware ADS-B
Thu 08:42:20 PM 41.1940 -89.8250 101° East 460 529 18,600 -2,400 Descending FlightAware ADS-B
Thu 08:42:59 PM 41.1790 -89.7180 101° East 449 517 17,000 -1,929 Descending FlightAware ADS-B
Thu 08:43:44 PM 41.1640 -89.6000 100° East 432 497 15,900 -1,259 Descending FlightAware ADS-B
Thu 08:44:20 PM 41.1660 -89.5020 88° East 426 490 15,300 -933 Descending FlightAware ADS-B
Thu 08:46:44 PM 41.1880 -89.1600 85° East 415 478 13,100 -1,047 Descending FlightAware ADS-B
Thu 08:47:52 PM 41.2070 -89.0070 81° East 393 452 11,600 -1,475 Descending FlightAware ADS-B
Thu 08:48:42 PM 41.2700 -88.8760 57° Northeast 379 436 10,200 -923 Descending FlightAware ADS-B
Thu 08:49:23 PM 41.3070 -88.8020 56° Northeast 336 387 10,200 -333 Level FlightAware ADS-B
Thu 08:49:54 PM 41.3330 -88.7500 56° Northeast 318 366 9,800 -1,119 Descending FlightAware ADS-B
Thu 08:50:22 PM 41.3570 -88.7030 56° Northeast 318 366 9,100 -1,474 Descending FlightAware ADS-B
Thu 08:50:51 PM 41.3790 -88.6570 57° Northeast 317 365 8,400 -1,500 Descending FlightAware ADS-B
Thu 08:51:02 PM 41.3890 -88.6380 55° Northeast 318 366 8,100 -1,500 Descending FlightAware ADS-B
Thu 08:51:31 PM 41.4120 -88.5920 56° Northeast 316 364 7,400 -1,472 Descending FlightAware ADS-B
Thu 08:51:55 PM 41.4310 -88.5520 58° Northeast 312 359 6,800 -1,222 Descending FlightAware ADS-B
Thu 08:52:25 PM 41.4550 -88.5040 56° Northeast 300 345 6,300 -590 Descending FlightAware ADS-B
Thu 08:52:56 PM 41.4770 -88.4590 57° Northeast 283 326 6,200 -102 Descending FlightAware ADS-B
Thu 08:53:24 PM 41.4960 -88.4170 59° Northeast 288 331 6,200  Level FlightAware ADS-B
Thu 08:53:52 PM 41.5110 -88.3700 67° East 292 336 6,200  Level FlightAware ADS-B
Thu 08:54:20 PM 41.5260 -88.3240 66° East 291 335 6,200  Level FlightAware ADS-B
Thu 08:54:47 PM 41.5400 -88.2800 67° East 291 335 6,200  Level FlightAware ADS-B
Thu 08:55:16 PM 41.5550 -88.2320 67° East 290 334 6,200  Level FlightAware ADS-B
Thu 08:55:44 PM 41.5690 -88.1850 68° East 290 334 6,200  Level FlightAware ADS-B
Thu 08:56:13 PM 41.5840 -88.1380 67° East 290 334 6,200 -214 Level FlightAware ADS-B
Thu 08:56:40 PM 41.5980 -88.0930 67° East 277 319 6,000 -462 Descending FlightAware ADS-B
Thu 08:56:52 PM 41.6030 -88.0760 69° East 270 311 5,900 -1,650 Descending FlightAware ADS-B
Thu 08:57:20 PM 41.6180 -88.0300 66° East 291 335 4,900 -1,655 Descending FlightAware ADS-B
Thu 08:57:50 PM 41.6330 -87.9810 68° East 285 328 4,300 -1,000 Descending FlightAware ADS-B
Thu 08:58:02 PM 41.6390 -87.9620 67° East 279 321 4,200 -293 Descending FlightAware ADS-B
Thu 08:58:31 PM 41.6540 -87.9190 65° Northeast 246 283 4,100 -724 Descending FlightAware ADS-B
Thu 08:59:00 PM 41.6770 -87.8890 44° Northeast 226 260 3,500 -1,200 Descending FlightAware ADS-B
Thu 08:59:16 PM 41.6880 -87.8740 46° Northeast 212 244 3,200 -1,143 Descending FlightAware ADS-B
Thu 08:59:42 PM 41.7060 -87.8510 44° Northeast 200 230 2,700 -1,105 Descending FlightAware ADS-B
Thu 08:59:54 PM 41.7140 -87.8410 43° Northeast 195 224 2,500 -857 Descending FlightAware ADS-B
Thu 09:00:24 PM 41.7330 -87.8180 42° Northeast 171 197 2,100 -750 Descending FlightAware ADS-B
Thu 09:00:34 PM 41.7380 -87.8110 46° Northeast 159 183 2,000 -880 Descending FlightAware ADS-B
Thu 09:01:39 PM 41.7658 -87.7772 46° Northeast 181 208 1,000 -923 Descending Chicago Center
Thu 09:03:00 PM 41.7833 -87.7500 51° Northeast  Level FlightAware Approximate
Thu 09:10:00 PM 41.7860 -87.7524 51° Northeast  Level Estimated

Login

Don't have an account? Register now (free) for customized features, flight alerts, and more!